Time,TemperatureF,DewpointF,PressureIn,WindDirection,WindDirectionDegrees,WindSpeedMPH,WindSpeedGustMPH,Humidity,HourlyPrecipIn,Conditions,Clouds,dailyrainin,SolarRadiationWatts/m^2,SoftwareType,DateUTC
2013-07-18 00:00:00,79.0,72.0,-100.00,WSW,247,4.0,-999.0,79,-99.99,,,-99.99,0.000000,,2013-07-18 05:00:00,
2013-07-18 00:32:00,79.0,72.0,-100.00,WSW,247,4.0,-999.0,79,-99.99,,,-99.99,0.000000,,2013-07-18 05:32:00,
2013-07-18 00:42:00,79.0,72.0,-100.00,WSW,247,4.0,-999.0,79,-99.99,,,-99.99,0.000000,,2013-07-18 05:42:00,
2013-07-18 00:52:00,79.0,72.0,-100.00,WSW,247,4.0,-999.0,79,-99.99,,,-99.99,0.000000,,2013-07-18 05:52:00,
2013-07-18 01:00:00,79.0,71.0,-100.00,WSW,247,4.0,-999.0,76,-99.99,,,-99.99,0.000000,,2013-07-18 06:00:00,
2013-07-18 01:32:00,79.0,71.0,-100.00,WSW,247,4.0,-999.0,76,-99.99,,,-99.99,0.000000,,2013-07-18 06:32:00,
2013-07-18 01:43:00,79.0,71.0,-100.00,WSW,247,4.0,-999.0,76,-99.99,,,-99.99,0.000000,,2013-07-18 06:43:00,
2013-07-18 01:52:00,79.0,71.0,-100.00,WSW,247,4.0,-999.0,76,-99.99,,,-99.99,0.000000,,2013-07-18 06:52:00,
2013-07-18 06:00:00,77.0,69.0,-100.00,WSW,247,4.0,-999.0,77,-99.99,,,-99.99,18.559999,,2013-07-18 11:00:00,
2013-07-18 06:43:00,77.0,69.0,-100.00,WSW,247,4.0,-999.0,77,-99.99,,,-99.99,18.559999,,2013-07-18 11:43:00,
2013-07-18 06:52:00,77.0,69.0,-100.00,WSW,247,4.0,-999.0,77,-99.99,,,-99.99,18.559999,,2013-07-18 11:52:00,
2013-07-18 07:00:00,78.0,69.0,-100.00,WSW,247,4.0,-999.0,76,-99.99,,,-99.99,84.680000,,2013-07-18 12:00:00,
2013-07-18 07:42:00,78.0,69.0,-100.00,WSW,247,4.0,-999.0,76,-99.99,,,-99.99,84.680000,,2013-07-18 12:42:00,
2013-07-18 07:52:00,78.0,69.0,-100.00,WSW,247,4.0,-999.0,76,-99.99,,,-99.99,84.680000,,2013-07-18 12:52:00,
2013-07-18 09:00:00,80.0,70.0,-100.00,West,270,6.0,-999.0,71,-99.99,,,-99.99,327.119995,,2013-07-18 14:00:00,
2013-07-18 09:43:00,80.0,70.0,-100.00,West,270,6.0,-999.0,71,-99.99,,,-99.99,327.119995,,2013-07-18 14:43:00,
2013-07-18 09:53:00,80.0,70.0,-100.00,West,270,6.0,-999.0,71,-99.99,,,-99.99,327.119995,,2013-07-18 14:53:00,
2013-07-18 10:00:00,81.0,70.0,-100.00,West,270,6.0,-999.0,69,-99.99,,,-99.99,345.679993,,2013-07-18 15:00:00,
2013-07-18 10:43:00,81.0,70.0,-100.00,West,270,6.0,-999.0,69,-99.99,,,-99.99,345.679993,,2013-07-18 15:43:00,
2013-07-18 10:53:00,81.0,70.0,-100.00,West,270,6.0,-999.0,69,-99.99,,,-99.99,345.679993,,2013-07-18 15:53:00,
2013-07-18 11:00:00,82.0,71.0,-100.00,WSW,247,5.0,-999.0,69,-99.99,,,-99.99,515.039978,,2013-07-18 16:00:00,
2013-07-18 11:32:00,82.0,71.0,-100.00,WSW,247,5.0,-999.0,69,-99.99,,,-99.99,515.039978,,2013-07-18 16:32:00,
2013-07-18 11:42:00,82.0,71.0,-100.00,WSW,247,5.0,-999.0,69,-99.99,,,-99.99,515.039978,,2013-07-18 16:42:00,
2013-07-18 11:52:00,82.0,71.0,-100.00,WSW,247,5.0,-999.0,69,-99.99,,,-99.99,515.039978,,2013-07-18 16:52:00,
2013-07-18 12:00:00,85.0,72.0,-100.00,WSW,247,4.0,-999.0,64,-99.99,,,-99.99,794.599976,,2013-07-18 17:00:00,
2013-07-18 12:33:00,85.0,72.0,-100.00,WSW,247,4.0,-999.0,64,-99.99,,,-99.99,794.599976,,2013-07-18 17:33:00,
2013-07-18 12:43:00,85.0,72.0,-100.00,WSW,247,4.0,-999.0,64,-99.99,,,-99.99,794.599976,,2013-07-18 17:43:00,
2013-07-18 12:52:00,85.0,72.0,-100.00,WSW,247,4.0,-999.0,64,-99.99,,,-99.99,794.599976,,2013-07-18 17:52:00,
2013-07-18 15:00:00,90.0,69.0,-100.00,WSW,247,13.0,-999.0,50,-99.99,,,-99.99,861.880005,,2013-07-18 20:00:00,
2013-07-18 15:32:00,90.0,69.0,-100.00,WSW,247,13.0,-999.0,50,-99.99,,,-99.99,861.880005,,2013-07-18 20:32:00,
2013-07-18 15:43:00,90.0,69.0,-100.00,WSW,247,13.0,-999.0,50,-99.99,,,-99.99,861.880005,,2013-07-18 20:43:00,
2013-07-18 15:52:00,90.0,69.0,-100.00,WSW,247,13.0,-999.0,50,-99.99,,,-99.99,861.880005,,2013-07-18 20:52:00,
2013-07-18 16:00:00,91.0,70.0,-100.00,WSW,247,12.0,-999.0,50,-99.99,,,-99.99,727.320007,,2013-07-18 21:00:00,
2013-07-18 16:43:00,91.0,70.0,-100.00,WSW,247,12.0,-999.0,50,-99.99,,,-99.99,727.320007,,2013-07-18 21:43:00,
2013-07-18 16:52:00,91.0,70.0,-100.00,WSW,247,12.0,-999.0,50,-99.99,,,-99.99,727.320007,,2013-07-18 21:52:00,
2013-07-18 17:00:00,89.0,71.0,-100.00,SSW,202,9.0,-999.0,55,-99.99,,,-99.99,532.440002,,2013-07-18 22:00:00,
2013-07-18 17:32:00,89.0,71.0,-100.00,SSW,202,9.0,-999.0,55,-99.99,,,-99.99,532.440002,,2013-07-18 22:32:00,
2013-07-18 17:43:00,89.0,71.0,-100.00,SSW,202,9.0,-999.0,55,-99.99,,,-99.99,532.440002,,2013-07-18 22:43:00,
2013-07-18 17:53:00,89.0,71.0,-100.00,SSW,202,9.0,-999.0,55,-99.99,,,-99.99,532.440002,,2013-07-18 22:53:00,
2013-07-18 18:00:00,89.0,70.0,-100.00,SW,225,11.0,-999.0,53,-99.99,,,-99.99,416.440002,,2013-07-18 23:00:00,
2013-07-18 18:32:00,89.0,70.0,-100.00,SW,225,11.0,-999.0,53,-99.99,,,-99.99,416.440002,,2013-07-18 23:32:00,
2013-07-18 18:42:00,89.0,70.0,-100.00,SW,225,11.0,-999.0,53,-99.99,,,-99.99,416.440002,,2013-07-18 23:42:00,
2013-07-18 18:52:00,89.0,70.0,-100.00,SW,225,11.0,-999.0,53,-99.99,,,-99.99,416.440002,,2013-07-18 23:52:00,
2013-07-18 19:00:00,89.0,69.0,-100.00,SW,225,11.0,-999.0,51,-99.99,,,-99.99,245.919998,,2013-07-19 00:00:00,
2013-07-18 19:43:00,89.0,69.0,-100.00,SW,225,11.0,-999.0,51,-99.99,,,-99.99,245.919998,,2013-07-19 00:43:00,
2013-07-18 19:52:00,89.0,69.0,-100.00,SW,225,11.0,-999.0,51,-99.99,,,-99.99,245.919998,,2013-07-19 00:52:00,
2013-07-18 20:00:00,87.0,68.0,-100.00,SW,225,10.0,-999.0,52,-99.99,,,-99.99,96.279999,,2013-07-19 01:00:00,
2013-07-18 20:42:00,87.0,68.0,-100.00,SW,225,10.0,-999.0,52,-99.99,,,-99.99,96.279999,,2013-07-19 01:42:00,
2013-07-18 20:52:00,87.0,68.0,-100.00,SW,225,10.0,-999.0,52,-99.99,,,-99.99,96.279999,,2013-07-19 01:52:00,
2013-07-18 21:00:00,85.0,68.0,-100.00,SW,225,8.0,-999.0,57,-99.99,,,-99.99,8.120000,,2013-07-19 02:00:00,
2013-07-18 21:43:00,85.0,68.0,-100.00,SW,225,8.0,-999.0,57,-99.99,,,-99.99,8.120000,,2013-07-19 02:43:00,
2013-07-18 21:52:00,85.0,68.0,-100.00,SW,225,8.0,-999.0,57,-99.99,,,-99.99,8.120000,,2013-07-19 02:52:00,
2013-07-18 22:00:00,83.0,69.0,-100.00,SW,225,8.0,-999.0,61,-99.99,,,-99.99,0.000000,,2013-07-19 03:00:00,
2013-07-18 22:32:00,83.0,69.0,-100.00,SW,225,8.0,-999.0,61,-99.99,,,-99.99,0.000000,,2013-07-19 03:32:00,
2013-07-18 22:43:00,83.0,69.0,-100.00,SW,225,8.0,-999.0,61,-99.99,,,-99.99,0.000000,,2013-07-19 03:43:00,
2013-07-18 22:52:00,83.0,69.0,-100.00,SW,225,8.0,-999.0,61,-99.99,,,-99.99,0.000000,,2013-07-19 03:52:00,
2013-07-18 23:00:00,83.0,69.0,-100.00,SW,225,10.0,-999.0,61,-99.99,,,-99.99,0.000000,,2013-07-19 04:00:00,
2013-07-18 23:33:00,83.0,69.0,-100.00,SW,225,10.0,-999.0,61,-99.99,,,-99.99,0.000000,,2013-07-19 04:33:00,
2013-07-18 23:44:00,83.0,69.0,-100.00,SW,225,10.0,-999.0,61,-99.99,,,-99.99,0.000000,,2013-07-19 04:44:00,
2013-07-18 23:52:00,83.0,69.0,-100.00,SW,225,10.0,-999.0,61,-99.99,,,-99.99,0.000000,,2013-07-19 04:52:00,